createdAt,value
2022-12-11T00:01:45.742Z,2.85
2022-12-11T00:04:14.519Z,3.03
2022-12-11T00:06:43.430Z,3.45
2022-12-11T00:09:13.439Z,3.30
2022-12-11T00:11:43.714Z,3.00
2022-12-11T00:14:12.368Z,3.75
2022-12-11T00:16:41.003Z,3.35
2022-12-11T00:19:09.757Z,3.55
2022-12-11T00:21:38.418Z,3.00
2022-12-11T00:24:07.634Z,3.45
2022-12-11T00:26:36.327Z,3.63
2022-12-11T00:29:08.991Z,3.42
2022-12-11T00:31:37.674Z,2.85
2022-12-11T00:34:06.343Z,3.55
2022-12-11T00:36:35.064Z,3.40
2022-12-11T00:39:04.177Z,3.88
2022-12-11T00:41:32.807Z,4.07
2022-12-11T00:44:01.541Z,3.47
2022-12-11T00:46:31.467Z,4.07
2022-12-11T00:49:00.165Z,3.78
2022-12-11T00:51:29.057Z,3.45
2022-12-11T00:53:57.636Z,3.17
2022-12-11T00:56:26.460Z,3.20
2022-12-11T00:58:55.303Z,3.92
2022-12-11T01:01:25.316Z,3.13
2022-12-11T01:03:55.398Z,3.65
2022-12-11T01:06:25.547Z,3.75
2022-12-11T01:09:15.560Z,3.65
2022-12-11T01:11:43.714Z,3.72
2022-12-11T01:14:12.968Z,2.80
2022-12-11T01:16:41.758Z,3.42
2022-12-11T01:19:12.075Z,3.28
2022-12-11T01:21:41.244Z,3.55
2022-12-11T01:24:09.923Z,3.13
2022-12-11T01:26:38.540Z,3.00
2022-12-11T01:29:07.201Z,3.45
2022-12-11T01:31:35.945Z,3.40
2022-12-11T01:34:04.675Z,3.33
2022-12-11T01:36:35.076Z,2.72
2022-12-11T01:39:03.813Z,3.30
2022-12-11T01:41:32.607Z,3.10
2022-12-11T01:44:02.723Z,3.00
2022-12-11T01:46:31.875Z,3.15
2022-12-11T01:49:01.648Z,3.58
2022-12-11T01:51:31.028Z,3.00
2022-12-11T01:54:02.507Z,2.92
2022-12-11T01:56:33.004Z,2.70
2022-12-11T01:59:07.063Z,2.70
2022-12-11T02:01:37.206Z,2.40
2022-12-11T02:04:06.335Z,2.78
2022-12-11T02:06:36.541Z,3.05
2022-12-11T02:09:07.648Z,2.85
2022-12-11T02:11:40.780Z,2.50
2022-12-11T02:14:15.119Z,2.85
2022-12-11T02:16:47.434Z,2.97
2022-12-11T02:19:20.766Z,3.20
2022-12-11T02:21:51.536Z,2.88
2022-12-11T02:24:28.963Z,2.85
2022-12-11T02:27:21.839Z,2.83
2022-12-11T02:29:54.498Z,3.00
2022-12-11T02:32:24.539Z,3.17
2022-12-11T02:34:57.988Z,3.15
2022-12-11T02:37:28.095Z,2.97
2022-12-11T02:39:57.012Z,2.83
2022-12-11T02:42:28.950Z,2.80
2022-12-11T02:45:01.300Z,3.22
2022-12-11T02:47:32.108Z,3.30
2022-12-11T02:50:02.419Z,3.03
2022-12-11T02:52:32.395Z,3.60
2022-12-11T02:55:02.391Z,3.15
2022-12-11T02:57:33.746Z,3.20
2022-12-11T03:00:04.039Z,3.38
2022-12-11T03:02:33.008Z,2.92
2022-12-11T03:05:01.717Z,3.40
2022-12-11T03:07:31.575Z,3.20
2022-12-11T03:10:00.260Z,3.25
2022-12-11T03:12:31.008Z,3.35
2022-12-11T03:15:00.697Z,2.67
2022-12-11T03:17:33.216Z,2.70
2022-12-11T03:20:05.835Z,2.90
2022-12-11T03:22:38.904Z,2.72
2022-12-11T03:25:09.340Z,2.58
2022-12-11T03:27:40.170Z,3.00
2022-12-11T03:30:10.640Z,3.00
2022-12-11T03:32:42.774Z,2.78
2022-12-11T03:35:15.541Z,2.58
2022-12-11T03:37:45.651Z,2.58
2022-12-11T03:40:16.098Z,2.80
2022-12-11T03:42:46.336Z,2.42
2022-12-11T03:45:15.748Z,2.50
2022-12-11T03:47:47.421Z,2.67
2022-12-11T03:50:18.185Z,2.67
2022-12-11T03:52:47.788Z,3.15
2022-12-11T03:55:17.828Z,2.63
2022-12-11T03:57:46.615Z,2.53
2022-12-11T04:00:17.097Z,2.72
2022-12-11T04:03:12.888Z,3.05
2022-12-11T04:05:41.932Z,3.30
2022-12-11T04:08:10.700Z,3.40
2022-12-11T04:10:39.431Z,3.13
2022-12-11T04:13:08.080Z,2.95
2022-12-11T04:15:36.232Z,3.50
2022-12-11T04:18:23.956Z,2.63
2022-12-11T04:21:12.921Z,2.88
2022-12-11T04:23:59.297Z,3.10
2022-12-11T04:26:28.304Z,3.28
2022-12-11T04:28:56.974Z,3.25
2022-12-11T04:31:25.685Z,2.97
2022-12-11T04:33:55.805Z,3.13
2022-12-11T04:36:24.518Z,2.70
2022-12-11T04:38:53.183Z,3.05
2022-12-11T04:41:21.844Z,2.92
2022-12-11T04:43:50.487Z,2.80
2022-12-11T04:46:20.605Z,2.75
2022-12-11T04:48:55.458Z,2.33
2022-12-11T04:51:27.450Z,3.03
2022-12-11T04:53:56.277Z,2.22
2022-12-11T04:56:25.080Z,2.75
2022-12-11T04:58:53.859Z,3.00
2022-12-11T05:01:23.651Z,2.55
2022-12-11T05:03:52.442Z,2.58
2022-12-11T05:06:21.035Z,2.40
2022-12-11T05:08:51.008Z,2.60
2022-12-11T05:11:19.718Z,3.08
2022-12-11T05:13:48.499Z,2.78
2022-12-11T05:16:18.366Z,2.58
2022-12-11T05:18:47.449Z,2.53
2022-12-11T05:21:16.828Z,2.67
2022-12-11T05:23:45.627Z,2.65
2022-12-11T05:26:17.107Z,3.38
2022-12-11T05:28:46.059Z,2.78
2022-12-11T05:31:15.894Z,2.28
2022-12-11T05:33:44.736Z,2.72
2022-12-11T05:36:17.099Z,2.92
2022-12-11T05:38:46.000Z,2.63
2022-12-11T05:41:16.746Z,2.63
2022-12-11T05:43:45.614Z,2.78
2022-12-11T05:46:15.562Z,2.83
2022-12-11T05:48:44.675Z,2.75
2022-12-11T05:51:13.651Z,2.60
2022-12-11T05:53:42.748Z,2.78
2022-12-11T05:56:12.958Z,2.53
2022-12-11T05:58:43.291Z,3.22
2022-12-11T06:01:12.506Z,2.90
2022-12-11T06:03:41.173Z,2.85
2022-12-11T06:06:09.824Z,2.90
2022-12-11T06:08:38.478Z,2.78
2022-12-11T06:11:07.284Z,2.67
2022-12-11T06:13:36.056Z,2.78
2022-12-11T06:16:07.173Z,2.92
2022-12-11T06:18:37.453Z,2.90
2022-12-11T06:21:12.747Z,3.05
2022-12-11T06:23:41.462Z,2.63
2022-12-11T06:26:10.671Z,2.95
2022-12-11T06:28:39.711Z,2.63
2022-12-11T06:31:10.194Z,3.28
2022-12-11T06:33:38.974Z,2.97
2022-12-11T06:36:08.881Z,3.10
2022-12-11T06:38:37.660Z,2.80
2022-12-11T06:41:07.132Z,3.17
2022-12-11T06:43:36.341Z,2.80
2022-12-11T06:46:06.142Z,3.30
2022-12-11T06:48:36.368Z,3.08
2022-12-11T06:51:07.736Z,3.13
2022-12-11T06:53:36.858Z,3.28
2022-12-11T06:56:06.394Z,3.15
2022-12-11T06:58:36.212Z,3.50
2022-12-11T07:01:05.414Z,2.70
2022-12-11T07:03:34.103Z,3.08
2022-12-11T07:06:04.715Z,3.03
2022-12-11T07:08:33.811Z,3.20
2022-12-11T07:11:04.879Z,2.95
2022-12-11T07:13:33.782Z,3.30
2022-12-11T07:16:04.519Z,2.83
2022-12-11T07:18:33.931Z,3.00
2022-12-11T07:21:03.975Z,2.70
2022-12-11T07:23:32.671Z,2.70
2022-12-11T07:26:01.339Z,3.00
2022-12-11T07:28:30.507Z,3.15
2022-12-11T07:30:59.243Z,4.38
2022-12-11T07:33:27.973Z,3.03
2022-12-11T07:35:56.597Z,3.47
2022-12-11T07:38:26.841Z,3.47
2022-12-11T07:40:55.533Z,3.80
2022-12-11T07:43:24.220Z,3.50
2022-12-11T07:45:52.906Z,3.45
2022-12-11T07:48:21.504Z,3.33
2022-12-11T07:50:50.201Z,2.97
2022-12-11T07:53:18.990Z,3.17
2022-12-11T07:55:48.932Z,3.47
2022-12-11T07:58:18.363Z,3.00
2022-12-11T08:00:47.953Z,3.15
2022-12-11T08:03:16.676Z,3.85
2022-12-11T08:05:50.092Z,3.20
2022-12-11T08:08:18.837Z,3.55
2022-12-11T08:10:48.956Z,3.85
2022-12-11T08:13:17.654Z,4.00
2022-12-11T08:15:46.480Z,3.17
2022-12-11T08:18:15.952Z,3.90
2022-12-11T08:20:44.523Z,3.10
2022-12-11T08:23:13.274Z,2.78
2022-12-11T08:25:41.855Z,3.85
2022-12-11T08:28:11.860Z,2.97
2022-12-11T08:30:40.786Z,3.35
2022-12-11T08:33:09.426Z,3.95
2022-12-11T08:35:40.842Z,3.40
2022-12-11T08:38:09.440Z,4.05
2022-12-11T08:40:38.044Z,4.40
2022-12-11T08:43:06.703Z,4.13
2022-12-11T08:45:36.791Z,2.85
2022-12-11T08:48:05.672Z,3.50
2022-12-11T08:50:34.339Z,3.38
2022-12-11T08:53:02.954Z,2.72
2022-12-11T08:55:31.606Z,3.38
2022-12-11T08:58:00.326Z,2.95
2022-12-11T09:00:29.638Z,2.72
2022-12-11T09:02:59.722Z,3.08
2022-12-11T09:05:28.314Z,2.75
2022-12-11T09:07:56.987Z,3.15
2022-12-11T09:10:25.848Z,3.42
2022-12-11T09:12:54.447Z,2.65
2022-12-11T09:15:23.039Z,3.38
2022-12-11T09:17:51.691Z,3.03
2022-12-11T09:20:21.705Z,3.08
2022-12-11T09:22:50.417Z,2.90
2022-12-11T09:25:19.113Z,2.85
2022-12-11T09:27:47.716Z,3.30
2022-12-11T09:30:16.768Z,3.20
2022-12-11T09:32:45.581Z,3.30
2022-12-11T09:35:14.285Z,2.88
2022-12-11T09:37:44.475Z,2.95
2022-12-11T09:40:13.850Z,2.95
2022-12-11T09:42:49.133Z,3.30
2022-12-11T09:45:17.954Z,3.40
2022-12-11T09:47:50.118Z,3.25
2022-12-11T09:50:21.371Z,3.08
2022-12-11T09:52:57.513Z,2.90
2022-12-11T09:55:27.425Z,3.10
2022-12-11T09:58:00.410Z,3.38
2022-12-11T10:00:30.451Z,3.08
2022-12-11T10:03:19.870Z,3.63
2022-12-11T10:05:50.911Z,3.72
2022-12-11T10:08:23.007Z,3.35
2022-12-11T10:10:55.436Z,3.03
2022-12-11T10:13:30.439Z,3.13
2022-12-11T10:16:01.384Z,3.05
2022-12-11T10:18:31.600Z,2.65
2022-12-11T10:21:02.839Z,2.95
2022-12-11T10:23:35.766Z,3.08
2022-12-11T10:26:07.831Z,3.10
2022-12-11T10:28:36.986Z,3.10
2022-12-11T10:31:12.072Z,2.78
2022-12-11T10:33:43.695Z,2.83
2022-12-11T10:36:12.552Z,2.50
2022-12-11T10:38:44.794Z,2.78
2022-12-11T10:41:16.734Z,2.35
2022-12-11T10:43:46.405Z,2.80
2022-12-11T10:46:18.389Z,2.75
2022-12-11T10:48:47.584Z,2.45
2022-12-11T10:51:16.994Z,2.53
2022-12-11T10:53:51.290Z,2.58
2022-12-11T10:56:26.981Z,2.97
2022-12-11T10:58:56.023Z,2.65
2022-12-11T11:01:25.663Z,2.65
2022-12-11T11:03:56.258Z,3.00
2022-12-11T11:06:25.751Z,2.70
2022-12-11T11:08:56.579Z,3.05
2022-12-11T11:11:27.033Z,2.85
2022-12-11T11:14:06.568Z,2.80
2022-12-11T11:16:38.263Z,2.63
2022-12-11T11:19:07.398Z,2.90
2022-12-11T11:21:36.930Z,2.60
2022-12-11T11:24:07.101Z,2.60
2022-12-11T11:27:04.739Z,2.70
2022-12-11T11:29:27.838Z,2.80
2022-12-11T11:31:56.742Z,2.25
2022-12-11T11:34:26.286Z,2.40
2022-12-11T11:36:59.783Z,2.13
2022-12-11T11:39:33.333Z,2.40
2022-12-11T11:42:03.951Z,2.38
2022-12-11T11:44:34.290Z,2.40
2022-12-11T11:47:04.473Z,2.40
2022-12-11T11:49:42.874Z,2.20
2022-12-11T11:52:14.314Z,2.42
2022-12-11T11:54:48.991Z,2.53
2022-12-11T11:57:19.635Z,2.88
2022-12-11T11:59:49.564Z,2.47
2022-12-11T12:02:19.493Z,2.65
2022-12-11T12:04:49.413Z,2.78
2022-12-11T12:07:25.243Z,3.30
2022-12-11T12:09:58.990Z,2.50
2022-12-11T12:12:34.239Z,3.15
2022-12-11T12:15:18.414Z,2.97
2022-12-11T12:17:55.465Z,2.75
2022-12-11T12:20:35.022Z,2.65
2022-12-11T12:23:07.835Z,3.10
2022-12-11T12:25:40.801Z,3.05
2022-12-11T12:28:14.923Z,3.13
2022-12-11T12:30:47.291Z,2.75
2022-12-11T12:33:21.330Z,2.60
2022-12-11T12:35:53.927Z,2.85
2022-12-11T12:38:25.634Z,2.33
2022-12-11T12:41:01.963Z,2.40
2022-12-11T12:43:46.950Z,2.70
2022-12-11T12:46:21.684Z,3.00
2022-12-11T12:48:50.953Z,2.97
2022-12-11T12:51:20.219Z,3.33
2022-12-11T12:53:51.000Z,3.03
2022-12-11T12:56:22.569Z,2.97
2022-12-11T12:58:51.300Z,3.22
2022-12-11T13:01:20.978Z,2.75
2022-12-11T13:03:56.100Z,2.85
2022-12-11T13:06:31.776Z,3.10
2022-12-11T13:09:00.670Z,2.83
2022-12-11T13:11:36.440Z,2.58
2022-12-11T13:14:06.583Z,2.90
2022-12-11T13:16:39.069Z,2.67
2022-12-11T13:19:19.028Z,3.30
2022-12-11T13:21:57.107Z,3.22
2022-12-11T13:24:29.713Z,2.50
2022-12-11T13:27:10.325Z,2.80
2022-12-11T13:29:39.747Z,2.70
2022-12-11T13:32:22.389Z,2.38
2022-12-11T13:34:54.924Z,2.60
2022-12-11T13:37:26.979Z,3.38
2022-12-11T13:39:55.777Z,2.88
2022-12-11T13:42:27.060Z,2.90
2022-12-11T13:44:55.787Z,3.00
2022-12-11T13:47:24.527Z,2.42
2022-12-11T13:49:56.314Z,3.03
2022-12-11T13:52:27.818Z,2.63
2022-12-11T13:54:59.215Z,2.95
2022-12-11T13:57:29.986Z,2.50
2022-12-11T13:59:59.625Z,2.80
2022-12-11T14:02:30.372Z,2.30
2022-12-11T14:05:00.317Z,2.47
2022-12-11T14:07:30.942Z,2.33
2022-12-11T14:10:03.802Z,2.55
2022-12-11T14:12:34.751Z,2.70
2022-12-11T14:15:04.642Z,2.80
2022-12-11T14:17:34.584Z,2.50
2022-12-11T14:20:05.794Z,2.28
2022-12-11T14:22:34.525Z,2.28
2022-12-11T14:25:04.300Z,2.47
2022-12-11T14:27:35.155Z,2.55
2022-12-11T14:30:12.490Z,2.95
2022-12-11T14:32:44.955Z,2.85
2022-12-11T14:35:19.167Z,2.78
2022-12-11T14:37:48.000Z,2.83
2022-12-11T14:40:19.867Z,2.45
2022-12-11T14:42:55.672Z,2.65
2022-12-11T14:45:32.585Z,2.88
2022-12-11T14:48:01.767Z,2.55
2022-12-11T14:50:36.317Z,3.03
2022-12-11T14:53:06.152Z,3.00
2022-12-11T14:55:36.057Z,2.83
2022-12-11T14:58:08.263Z,2.70
2022-12-11T15:00:37.884Z,2.47
2022-12-11T15:03:07.749Z,2.63
2022-12-11T15:05:40.849Z,3.05
2022-12-11T15:08:24.948Z,2.28
2022-12-11T15:11:00.226Z,2.60
2022-12-11T15:13:30.523Z,2.70
2022-12-11T15:15:59.510Z,2.70
2022-12-11T15:18:31.929Z,2.70
2022-12-11T15:21:01.674Z,2.75
2022-12-11T15:23:30.647Z,2.33
2022-12-11T15:26:00.462Z,2.47
2022-12-11T15:28:31.807Z,2.80
2022-12-11T15:31:01.974Z,2.72
2022-12-11T15:33:34.233Z,2.80
2022-12-11T15:36:04.600Z,2.70
2022-12-11T15:38:39.521Z,2.70
2022-12-11T15:41:08.683Z,3.00
2022-12-11T15:43:39.280Z,2.90
2022-12-11T15:46:08.225Z,2.33
2022-12-11T15:48:36.952Z,3.13
2022-12-11T15:51:05.611Z,2.70
2022-12-11T15:53:34.309Z,2.67
2022-12-11T15:56:03.205Z,2.78
2022-12-11T15:58:31.994Z,3.22
2022-12-11T16:01:02.523Z,4.55
2022-12-11T16:03:31.370Z,4.18
2022-12-11T16:06:00.180Z,3.20
2022-12-11T16:08:29.037Z,5.03
2022-12-11T16:10:57.656Z,4.35
2022-12-11T16:13:26.240Z,3.20
2022-12-11T16:15:55.226Z,3.00
2022-12-11T16:18:26.507Z,3.22
2022-12-11T16:20:55.190Z,3.72
2022-12-11T16:23:23.931Z,3.00
2022-12-11T16:25:53.531Z,2.92
2022-12-11T16:28:22.424Z,3.05
2022-12-11T16:30:51.369Z,3.20
2022-12-11T16:33:20.040Z,3.50
2022-12-11T16:35:50.132Z,2.75
2022-12-11T16:38:18.748Z,2.65
2022-12-11T16:40:49.307Z,3.05
2022-12-11T16:43:18.004Z,3.70
2022-12-11T16:45:46.964Z,2.38
2022-12-11T16:48:15.806Z,3.30
2022-12-11T16:50:44.595Z,3.08
2022-12-11T16:53:15.349Z,2.42
2022-12-11T16:55:44.030Z,2.95
2022-12-11T16:58:16.363Z,2.97
2022-12-11T17:00:45.204Z,3.00
2022-12-11T17:03:13.894Z,2.50
2022-12-11T17:05:42.790Z,3.03
2022-12-11T17:08:11.551Z,3.05
2022-12-11T17:10:42.546Z,3.20
2022-12-11T17:13:11.289Z,2.97
2022-12-11T17:15:41.947Z,2.88
2022-12-11T17:18:11.224Z,3.05
2022-12-11T17:20:41.798Z,3.03
2022-12-11T17:23:10.720Z,3.17
2022-12-11T17:25:42.903Z,3.47
2022-12-11T17:28:11.599Z,3.35
2022-12-11T17:30:42.114Z,2.90
2022-12-11T17:33:11.067Z,3.13
2022-12-11T17:35:39.803Z,2.92
2022-12-11T17:38:08.490Z,2.95
2022-12-11T17:40:37.191Z,2.63
2022-12-11T17:43:09.336Z,2.53
2022-12-11T17:45:42.806Z,2.92
2022-12-11T17:48:11.416Z,2.88
2022-12-11T17:50:42.640Z,2.67
2022-12-11T17:53:13.018Z,2.28
2022-12-11T17:55:42.916Z,3.15
2022-12-11T17:58:13.533Z,3.20
2022-12-11T18:00:42.519Z,3.10
2022-12-11T18:03:11.516Z,3.17
2022-12-11T18:05:43.002Z,2.90
2022-12-11T18:08:14.128Z,2.53
2022-12-11T18:10:42.943Z,2.80
2022-12-11T18:13:13.207Z,2.90
2022-12-11T18:15:43.435Z,3.30
2022-12-11T18:18:12.444Z,2.70
2022-12-11T18:20:42.239Z,2.75
2022-12-11T18:23:10.831Z,2.70
2022-12-11T18:25:39.516Z,2.42
2022-12-11T18:28:08.547Z,2.70
2022-12-11T18:30:38.983Z,2.72
2022-12-11T18:33:07.596Z,2.58
2022-12-11T18:35:36.260Z,2.78
2022-12-11T18:38:05.086Z,2.47
2022-12-11T18:40:33.674Z,2.95
2022-12-11T18:43:02.425Z,2.60
2022-12-11T18:45:32.126Z,2.80
2022-12-11T18:48:02.117Z,2.60
2022-12-11T18:50:30.826Z,3.28
2022-12-11T18:52:59.447Z,2.95
2022-12-11T18:55:28.172Z,3.38
2022-12-11T18:57:56.856Z,3.08
2022-12-11T19:00:25.592Z,2.95
2022-12-11T19:02:54.461Z,3.30
2022-12-11T19:05:24.458Z,3.95
2022-12-11T19:07:53.086Z,3.22
2022-12-11T19:10:21.844Z,2.75
2022-12-11T19:12:50.485Z,3.22
2022-12-11T19:15:23.589Z,3.33
2022-12-11T19:17:52.840Z,2.95
2022-12-11T19:23:12.427Z,3.42
2022-12-11T19:25:44.176Z,4.22
2022-12-11T19:28:12.866Z,3.80
2022-12-11T19:30:44.161Z,3.72
2022-12-11T19:33:12.829Z,2.80
2022-12-11T19:35:41.397Z,3.15
2022-12-11T19:38:12.746Z,3.20
2022-12-11T19:40:42.178Z,3.83
2022-12-11T19:43:11.101Z,6.65
2022-12-11T19:45:41.535Z,3.40
2022-12-11T19:48:10.301Z,2.78
2022-12-11T19:50:39.043Z,2.80
2022-12-11T19:53:07.832Z,2.70
2022-12-11T19:55:37.962Z,2.88
2022-12-11T19:58:06.620Z,2.88
2022-12-11T20:00:35.356Z,2.95
2022-12-11T20:03:04.070Z,2.90
2022-12-11T20:05:32.673Z,2.80
2022-12-11T20:08:27.307Z,2.53
2022-12-11T20:10:51.855Z,3.08
2022-12-11T20:13:21.563Z,3.00
2022-12-11T20:15:51.649Z,3.15
2022-12-11T20:18:20.339Z,3.20
2022-12-11T20:20:49.027Z,2.85
2022-12-11T20:23:17.800Z,2.50
2022-12-11T20:25:48.055Z,2.95
2022-12-11T20:28:18.276Z,2.60
2022-12-11T20:30:46.971Z,4.32
2022-12-11T20:33:16.061Z,8.05
2022-12-11T20:35:46.028Z,6.60
2022-12-11T20:38:14.646Z,4.43
2022-12-11T20:40:43.517Z,3.78
2022-12-11T20:43:12.176Z,3.03
2022-12-11T20:45:42.197Z,2.80
2022-12-11T20:48:10.962Z,3.05
2022-12-11T20:50:39.687Z,3.20
2022-12-11T20:53:08.435Z,3.30
2022-12-11T20:55:40.774Z,4.85
2022-12-11T20:58:09.751Z,3.90
2022-12-11T21:00:39.013Z,3.22
2022-12-11T21:03:09.341Z,3.33
2022-12-11T21:05:42.087Z,3.45
2022-12-11T21:08:10.986Z,2.92
2022-12-11T21:10:43.086Z,3.10
2022-12-11T21:13:11.859Z,3.03
2022-12-11T21:15:41.051Z,3.25
2022-12-11T21:18:11.892Z,3.00
2022-12-11T21:20:40.635Z,3.03
2022-12-11T21:23:09.245Z,2.85
2022-12-11T21:25:40.638Z,3.20
2022-12-11T21:28:09.547Z,3.35
2022-12-11T21:30:41.333Z,4.00
2022-12-11T21:33:11.367Z,3.50
2022-12-11T21:35:40.126Z,3.03
2022-12-11T21:38:08.779Z,2.90
2022-12-11T21:40:37.630Z,4.35
2022-12-11T21:43:06.298Z,10.43
2022-12-11T21:46:00.495Z,9.93
2022-12-11T21:48:27.405Z,9.55
2022-12-11T21:50:56.153Z,6.28
2022-12-11T21:53:24.822Z,4.03
2022-12-11T21:55:54.383Z,2.95
2022-12-11T21:58:23.035Z,3.05
2022-12-11T22:00:51.906Z,2.80
2022-12-11T22:03:20.697Z,2.80
2022-12-11T22:05:50.717Z,2.70
2022-12-11T22:08:19.473Z,3.35
2022-12-11T22:10:48.136Z,2.30
2022-12-11T22:13:17.014Z,2.97
2022-12-11T22:15:46.036Z,3.00
2022-12-11T22:18:14.754Z,6.53
2022-12-11T22:20:43.395Z,8.43
2022-12-11T22:23:13.527Z,8.88
2022-12-11T22:25:42.303Z,6.63
2022-12-11T22:28:10.911Z,2.83
2022-12-11T22:30:39.681Z,2.50
2022-12-11T22:33:08.852Z,2.63
2022-12-11T22:35:37.671Z,2.83
2022-12-11T22:38:06.587Z,2.63
2022-12-11T22:40:36.628Z,2.63
2022-12-11T22:43:05.300Z,2.55
2022-12-11T22:45:34.015Z,2.47
2022-12-11T22:48:02.726Z,3.13
2022-12-11T22:50:31.315Z,5.25
2022-12-11T22:52:59.958Z,2.97
2022-12-11T22:55:28.535Z,2.70
2022-12-11T22:57:58.766Z,2.92
2022-12-11T23:00:27.467Z,2.90
2022-12-11T23:02:56.177Z,2.92
2022-12-11T23:05:24.891Z,2.58
2022-12-11T23:07:53.716Z,4.05
2022-12-11T23:10:22.552Z,11.35
2022-12-11T23:12:51.345Z,4.60
2022-12-11T23:15:21.383Z,2.83
2022-12-11T23:17:50.542Z,2.72
2022-12-11T23:20:19.501Z,2.33
2022-12-11T23:22:48.255Z,2.63
2022-12-11T23:25:17.214Z,2.42
2022-12-11T23:27:46.149Z,3.03
2022-12-11T23:30:15.162Z,2.38
2022-12-11T23:32:45.300Z,2.40
2022-12-11T23:35:14.332Z,2.17
2022-12-11T23:37:43.214Z,2.17
2022-12-11T23:40:14.211Z,2.83
2022-12-11T23:42:43.038Z,2.40
2022-12-11T23:45:12.103Z,2.50
2022-12-11T23:47:40.940Z,2.15
2022-12-11T23:50:11.707Z,2.20
2022-12-11T23:52:40.344Z,2.30
2022-12-11T23:55:10.252Z,2.22
2022-12-11T23:57:39.529Z,2.15
